首页
METAR-TAF:

METAR-TAF

机场 :

Alma, 密歇根州, 美国

纬度: 43-19-19N, 经度: 084-41-16W, 海拔: 229米

当前天气观测

该预报发布于27分钟前的06:17 UTC
风速7节,风向西南
温度 18°C
湿度 88%
气压 1005 hPa
能見度: 16.1公里
阴天层高于1300英尺

METAR: KAMN 250617Z AUTO 23007KT 10SM OVC013 18/16 A2968 RMK AO2 T01760155

时间: 02:44 (06:44 UTC)


TAF: 丢失

超过4000个机场的气象观测和天气预报(METAR&TAF报告)。

可查询的气象台以黄色和红色小点在地图上表示。

将鼠标移到小点上方,可查看气象台名称。

然后点击查看天气观测和预报。

如需切换地图:点击带黑十字的绿色按钮放大地图;点击带横线的绿色按钮缩小地图;或者点击绿色箭头查看邻近地区的地图。


METAR-TAF: